sensor_id;sensor_type;location;lat;lon;timestamp;P1;durP1;ratioP1;P2;durP2;ratioP2
70576;SDS011;58138;43.138;24.702;2024-02-21T00:01:30;35.35;;;22.92;;
70576;SDS011;58138;43.138;24.702;2024-02-21T00:03:56;39.83;;;25.52;;
70576;SDS011;58138;43.138;24.702;2024-02-21T00:06:21;37.17;;;24.77;;
70576;SDS011;58138;43.138;24.702;2024-02-21T00:08:47;24.77;;;16.75;;
70576;SDS011;58138;43.138;24.702;2024-02-21T00:11:12;25.73;;;16.40;;
70576;SDS011;58138;43.138;24.702;2024-02-21T00:13:38;26.05;;;17.00;;
70576;SDS011;58138;43.138;24.702;2024-02-21T00:16:03;21.98;;;14.60;;
70576;SDS011;58138;43.138;24.702;2024-02-21T00:18:29;22.08;;;15.15;;
70576;SDS011;58138;43.138;24.702;2024-02-21T00:20:55;25.33;;;14.80;;
70576;SDS011;58138;43.138;24.702;2024-02-21T00:23:21;22.52;;;14.85;;
70576;SDS011;58138;43.138;24.702;2024-02-21T00:25:46;28.35;;;19.38;;
70576;SDS011;58138;43.138;24.702;2024-02-21T00:28:12;31.70;;;21.60;;
70576;SDS011;58138;43.138;24.702;2024-02-21T00:30:38;34.97;;;22.95;;
70576;SDS011;58138;43.138;24.702;2024-02-21T00:33:03;38.28;;;22.55;;
70576;SDS011;58138;43.138;24.702;2024-02-21T00:35:29;34.58;;;23.40;;
70576;SDS011;58138;43.138;24.702;2024-02-21T00:37:54;39.28;;;23.70;;
70576;SDS011;58138;43.138;24.702;2024-02-21T00:40:22;25.73;;;17.50;;
70576;SDS011;58138;43.138;24.702;2024-02-21T00:42:48;28.85;;;18.50;;
70576;SDS011;58138;43.138;24.702;2024-02-21T00:45:13;34.97;;;23.17;;
70576;SDS011;58138;43.138;24.702;2024-02-21T00:47:39;33.95;;;23.38;;
70576;SDS011;58138;43.138;24.702;2024-02-21T00:50:05;34.45;;;23.45;;
70576;SDS011;58138;43.138;24.702;2024-02-21T00:52:32;35.92;;;23.00;;
70576;SDS011;58138;43.138;24.702;2024-02-21T00:54:58;35.83;;;23.10;;
70576;SDS011;58138;43.138;24.702;2024-02-21T00:57:23;28.52;;;19.13;;
70576;SDS011;58138;43.138;24.702;2024-02-21T00:59:49;24.80;;;16.70;;
70576;SDS011;58138;43.138;24.702;2024-02-21T01:02:14;22.85;;;14.25;;
70576;SDS011;58138;43.138;24.702;2024-02-21T01:04:40;17.20;;;11.93;;
70576;SDS011;58138;43.138;24.702;2024-02-21T01:07:05;18.02;;;11.85;;
70576;SDS011;58138;43.138;24.702;2024-02-21T01:09:31;14.48;;;10.73;;
70576;SDS011;58138;43.138;24.702;2024-02-21T01:11:56;16.00;;;11.07;;
70576;SDS011;58138;43.138;24.702;2024-02-21T01:14:22;17.38;;;11.25;;
70576;SDS011;58138;43.138;24.702;2024-02-21T01:16:47;16.33;;;10.93;;
70576;SDS011;58138;43.138;24.702;2024-02-21T01:19:13;17.02;;;12.10;;
70576;SDS011;58138;43.138;24.702;2024-02-21T01:21:38;19.77;;;13.60;;
70576;SDS011;58138;43.138;24.702;2024-02-21T01:24:04;17.63;;;10.50;;
70576;SDS011;58138;43.138;24.702;2024-02-21T01:26:29;14.65;;;10.88;;
70576;SDS011;58138;43.138;24.702;2024-02-21T01:28:55;17.40;;;11.93;;
70576;SDS011;58138;43.138;24.702;2024-02-21T01:31:20;15.32;;;10.75;;
70576;SDS011;58138;43.138;24.702;2024-02-21T01:33:46;17.38;;;12.02;;
70576;SDS011;58138;43.138;24.702;2024-02-21T01:36:11;15.95;;;11.00;;
70576;SDS011;58138;43.138;24.702;2024-02-21T01:38:37;16.00;;;11.30;;
70576;SDS011;58138;43.138;24.702;2024-02-21T01:41:03;19.55;;;13.57;;
70576;SDS011;58138;43.138;24.702;2024-02-21T01:43:28;25.40;;;17.38;;
70576;SDS011;58138;43.138;24.702;2024-02-21T01:45:54;26.30;;;17.27;;
70576;SDS011;58138;43.138;24.702;2024-02-21T01:48:24;27.08;;;17.92;;
70576;SDS011;58138;43.138;24.702;2024-02-21T01:50:50;26.70;;;17.63;;
70576;SDS011;58138;43.138;24.702;2024-02-21T01:53:18;26.85;;;17.88;;
70576;SDS011;58138;43.138;24.702;2024-02-21T01:55:45;28.40;;;18.13;;
70576;SDS011;58138;43.138;24.702;2024-02-21T01:58:12;26.08;;;17.77;;
70576;SDS011;58138;43.138;24.702;2024-02-21T02:00:42;29.60;;;17.92;;
70576;SDS011;58138;43.138;24.702;2024-02-21T02:03:11;26.95;;;18.00;;
70576;SDS011;58138;43.138;24.702;2024-02-21T02:05:48;25.83;;;17.60;;
70576;SDS011;58138;43.138;24.702;2024-02-21T02:08:15;28.40;;;17.85;;
70576;SDS011;58138;43.138;24.702;2024-02-21T02:10:41;28.33;;;18.40;;
70576;SDS011;58138;43.138;24.702;2024-02-21T02:13:07;32.85;;;19.15;;
70576;SDS011;58138;43.138;24.702;2024-02-21T02:15:39;28.40;;;19.52;;
70576;SDS011;58138;43.138;24.702;2024-02-21T02:18:09;28.25;;;18.52;;
70576;SDS011;58138;43.138;24.702;2024-02-21T02:20:38;30.45;;;19.25;;
70576;SDS011;58138;43.138;24.702;2024-02-21T02:23:07;28.23;;;18.95;;
70576;SDS011;58138;43.138;24.702;2024-02-21T02:25:38;34.83;;;21.33;;
70576;SDS011;58138;43.138;24.702;2024-02-21T02:28:07;24.00;;;16.35;;
70576;SDS011;58138;43.138;24.702;2024-02-21T02:30:33;23.88;;;17.55;;
70576;SDS011;58138;43.138;24.702;2024-02-21T02:33:01;26.52;;;17.90;;
70576;SDS011;58138;43.138;24.702;2024-02-21T02:35:29;27.58;;;18.13;;
70576;SDS011;58138;43.138;24.702;2024-02-21T02:37:54;30.52;;;18.98;;
70576;SDS011;58138;43.138;24.702;2024-02-21T02:40:20;29.83;;;19.13;;
70576;SDS011;58138;43.138;24.702;2024-02-21T02:42:45;29.05;;;20.00;;
70576;SDS011;58138;43.138;24.702;2024-02-21T02:45:11;24.88;;;18.05;;
70576;SDS011;58138;43.138;24.702;2024-02-21T02:47:39;27.50;;;16.70;;
70576;SDS011;58138;43.138;24.702;2024-02-21T02:50:05;28.88;;;16.95;;
70576;SDS011;58138;43.138;24.702;2024-02-21T02:52:31;30.67;;;17.75;;
70576;SDS011;58138;43.138;24.702;2024-02-21T02:54:57;34.13;;;20.33;;
70576;SDS011;58138;43.138;24.702;2024-02-21T02:57:23;27.83;;;17.73;;
70576;SDS011;58138;43.138;24.702;2024-02-21T02:59:48;24.10;;;16.55;;
70576;SDS011;58138;43.138;24.702;2024-02-21T03:02:14;27.27;;;18.17;;
70576;SDS011;58138;43.138;24.702;2024-02-21T03:04:40;23.02;;;16.80;;
70576;SDS011;58138;43.138;24.702;2024-02-21T03:07:05;24.15;;;17.17;;
70576;SDS011;58138;43.138;24.702;2024-02-21T03:09:31;27.98;;;17.33;;
70576;SDS011;58138;43.138;24.702;2024-02-21T03:11:57;27.13;;;17.73;;
70576;SDS011;58138;43.138;24.702;2024-02-21T03:14:28;28.75;;;17.90;;
70576;SDS011;58138;43.138;24.702;2024-02-21T03:16:53;30.17;;;18.20;;
70576;SDS011;58138;43.138;24.702;2024-02-21T03:19:19;25.80;;;18.27;;
70576;SDS011;58138;43.138;24.702;2024-02-21T03:21:45;27.13;;;18.02;;
70576;SDS011;58138;43.138;24.702;2024-02-21T03:24:10;26.48;;;18.20;;
70576;SDS011;58138;43.138;24.702;2024-02-21T03:26:36;25.80;;;17.88;;
70576;SDS011;58138;43.138;24.702;2024-02-21T03:29:03;27.02;;;18.80;;
70576;SDS011;58138;43.138;24.702;2024-02-21T03:31:28;25.52;;;17.13;;
70576;SDS011;58138;43.138;24.702;2024-02-21T03:33:54;27.02;;;17.10;;
70576;SDS011;58138;43.138;24.702;2024-02-21T03:36:20;25.05;;;17.10;;
70576;SDS011;58138;43.138;24.702;2024-02-21T03:38:45;24.73;;;15.63;;
70576;SDS011;58138;43.138;24.702;2024-02-21T03:41:11;27.60;;;17.98;;
70576;SDS011;58138;43.138;24.702;2024-02-21T03:43:39;27.77;;;18.63;;
70576;SDS011;58138;43.138;24.702;2024-02-21T03:46:05;27.70;;;18.60;;
70576;SDS011;58138;43.138;24.702;2024-02-21T03:48:31;27.77;;;18.42;;
70576;SDS011;58138;43.138;24.702;2024-02-21T03:50:56;29.60;;;20.17;;
70576;SDS011;58138;43.138;24.702;2024-02-21T03:53:22;33.88;;;21.88;;
70576;SDS011;58138;43.138;24.702;2024-02-21T03:55:47;36.60;;;22.17;;
70576;SDS011;58138;43.138;24.702;2024-02-21T03:58:13;32.72;;;21.52;;
70576;SDS011;58138;43.138;24.702;2024-02-21T04:00:38;44.67;;;25.90;;
70576;SDS011;58138;43.138;24.702;2024-02-21T04:03:04;30.73;;;19.42;;
70576;SDS011;58138;43.138;24.702;2024-02-21T04:05:29;37.55;;;21.17;;
70576;SDS011;58138;43.138;24.702;2024-02-21T04:07:55;37.97;;;23.50;;
70576;SDS011;58138;43.138;24.702;2024-02-21T04:10:20;34.25;;;19.05;;
70576;SDS011;58138;43.138;24.702;2024-02-21T04:12:46;32.33;;;19.80;;
70576;SDS011;58138;43.138;24.702;2024-02-21T04:15:11;54.42;;;29.02;;
70576;SDS011;58138;43.138;24.702;2024-02-21T04:17:37;28.95;;;19.55;;
70576;SDS011;58138;43.138;24.702;2024-02-21T04:20:04;34.72;;;21.05;;
70576;SDS011;58138;43.138;24.702;2024-02-21T04:22:30;27.55;;;18.20;;
70576;SDS011;58138;43.138;24.702;2024-02-21T04:24:59;30.35;;;19.23;;
70576;SDS011;58138;43.138;24.702;2024-02-21T04:27:25;29.38;;;19.63;;
70576;SDS011;58138;43.138;24.702;2024-02-21T04:29:50;26.98;;;19.58;;
70576;SDS011;58138;43.138;24.702;2024-02-21T04:32:16;28.20;;;18.77;;
70576;SDS011;58138;43.138;24.702;2024-02-21T04:34:41;70.32;;;43.10;;
70576;SDS011;58138;43.138;24.702;2024-02-21T04:37:07;35.53;;;24.13;;
70576;SDS011;58138;43.138;24.702;2024-02-21T04:39:32;27.27;;;18.10;;
70576;SDS011;58138;43.138;24.702;2024-02-21T04:41:58;27.52;;;19.58;;
70576;SDS011;58138;43.138;24.702;2024-02-21T04:44:23;24.40;;;17.52;;
70576;SDS011;58138;43.138;24.702;2024-02-21T04:46:49;23.80;;;17.13;;
70576;SDS011;58138;43.138;24.702;2024-02-21T04:49:14;23.10;;;17.05;;
70576;SDS011;58138;43.138;24.702;2024-02-21T04:51:43;26.23;;;17.42;;
70576;SDS011;58138;43.138;24.702;2024-02-21T04:54:08;27.38;;;17.90;;
70576;SDS011;58138;43.138;24.702;2024-02-21T04:56:34;29.90;;;18.90;;
70576;SDS011;58138;43.138;24.702;2024-02-21T04:59:00;26.17;;;18.90;;
70576;SDS011;58138;43.138;24.702;2024-02-21T05:01:25;28.42;;;20.10;;
70576;SDS011;58138;43.138;24.702;2024-02-21T05:03:51;35.95;;;21.98;;
70576;SDS011;58138;43.138;24.702;2024-02-21T05:06:16;27.10;;;18.60;;
70576;SDS011;58138;43.138;24.702;2024-02-21T05:08:42;27.33;;;18.15;;
70576;SDS011;58138;43.138;24.702;2024-02-21T05:11:07;26.95;;;18.40;;
70576;SDS011;58138;43.138;24.702;2024-02-21T05:13:33;26.75;;;18.92;;
70576;SDS011;58138;43.138;24.702;2024-02-21T05:15:58;28.30;;;18.45;;
70576;SDS011;58138;43.138;24.702;2024-02-21T05:18:26;28.98;;;20.15;;
70576;SDS011;58138;43.138;24.702;2024-02-21T05:20:53;31.63;;;18.33;;
70576;SDS011;58138;43.138;24.702;2024-02-21T05:23:18;32.70;;;21.40;;
70576;SDS011;58138;43.138;24.702;2024-02-21T05:25:44;40.72;;;22.92;;
70576;SDS011;58138;43.138;24.702;2024-02-21T05:28:09;43.95;;;20.33;;
70576;SDS011;58138;43.138;24.702;2024-02-21T05:30:35;35.78;;;20.08;;
70576;SDS011;58138;43.138;24.702;2024-02-21T05:33:07;34.35;;;19.60;;
70576;SDS011;58138;43.138;24.702;2024-02-21T05:35:33;27.25;;;18.85;;
70576;SDS011;58138;43.138;24.702;2024-02-21T05:37:59;27.50;;;17.48;;
70576;SDS011;58138;43.138;24.702;2024-02-21T05:40:25;23.40;;;16.80;;
70576;SDS011;58138;43.138;24.702;2024-02-21T05:42:50;23.50;;;16.05;;
70576;SDS011;58138;43.138;24.702;2024-02-21T05:45:17;22.98;;;16.55;;
70576;SDS011;58138;43.138;24.702;2024-02-21T05:47:43;25.73;;;16.02;;
70576;SDS011;58138;43.138;24.702;2024-02-21T05:50:09;36.03;;;20.92;;
70576;SDS011;58138;43.138;24.702;2024-02-21T05:52:35;37.75;;;20.58;;
70576;SDS011;58138;43.138;24.702;2024-02-21T05:55:00;27.33;;;16.25;;
70576;SDS011;58138;43.138;24.702;2024-02-21T05:57:26;33.20;;;18.27;;
70576;SDS011;58138;43.138;24.702;2024-02-21T05:59:52;25.20;;;15.13;;
70576;SDS011;58138;43.138;24.702;2024-02-21T06:02:17;21.80;;;13.73;;
70576;SDS011;58138;43.138;24.702;2024-02-21T06:04:43;20.17;;;13.15;;
70576;SDS011;58138;43.138;24.702;2024-02-21T06:07:09;18.20;;;13.10;;
70576;SDS011;58138;43.138;24.702;2024-02-21T06:09:35;18.17;;;12.07;;
70576;SDS011;58138;43.138;24.702;2024-02-21T06:12:00;17.90;;;11.73;;
70576;SDS011;58138;43.138;24.702;2024-02-21T06:14:26;17.75;;;11.70;;
70576;SDS011;58138;43.138;24.702;2024-02-21T06:16:52;16.98;;;11.73;;
70576;SDS011;58138;43.138;24.702;2024-02-21T06:19:17;17.95;;;12.20;;
70576;SDS011;58138;43.138;24.702;2024-02-21T06:21:42;17.30;;;12.50;;
70576;SDS011;58138;43.138;24.702;2024-02-21T06:24:08;20.90;;;14.50;;
70576;SDS011;58138;43.138;24.702;2024-02-21T06:26:34;19.40;;;13.27;;
70576;SDS011;58138;43.138;24.702;2024-02-21T06:28:59;22.38;;;14.45;;
70576;SDS011;58138;43.138;24.702;2024-02-21T06:31:26;21.50;;;15.20;;
70576;SDS011;58138;43.138;24.702;2024-02-21T06:33:52;24.60;;;17.25;;
70576;SDS011;58138;43.138;24.702;2024-02-21T06:36:18;40.63;;;21.55;;
70576;SDS011;58138;43.138;24.702;2024-02-21T06:38:44;25.58;;;16.17;;
70576;SDS011;58138;43.138;24.702;2024-02-21T06:41:16;25.58;;;15.82;;
70576;SDS011;58138;43.138;24.702;2024-02-21T06:43:43;34.58;;;19.80;;
70576;SDS011;58138;43.138;24.702;2024-02-21T06:46:10;20.95;;;15.30;;
70576;SDS011;58138;43.138;24.702;2024-02-21T06:48:35;31.42;;;19.90;;
70576;SDS011;58138;43.138;24.702;2024-02-21T06:51:01;27.27;;;16.90;;
70576;SDS011;58138;43.138;24.702;2024-02-21T06:53:26;25.48;;;16.52;;
70576;SDS011;58138;43.138;24.702;2024-02-21T06:55:52;23.63;;;16.38;;
70576;SDS011;58138;43.138;24.702;2024-02-21T06:58:17;28.10;;;20.00;;
70576;SDS011;58138;43.138;24.702;2024-02-21T07:00:43;33.10;;;20.45;;
70576;SDS011;58138;43.138;24.702;2024-02-21T07:03:08;33.15;;;22.83;;
70576;SDS011;58138;43.138;24.702;2024-02-21T07:05:34;42.97;;;29.50;;
70576;SDS011;58138;43.138;24.702;2024-02-21T07:07:59;38.08;;;26.85;;
70576;SDS011;58138;43.138;24.702;2024-02-21T07:10:25;55.10;;;35.22;;
70576;SDS011;58138;43.138;24.702;2024-02-21T07:12:50;34.38;;;23.67;;
70576;SDS011;58138;43.138;24.702;2024-02-21T07:15:17;23.42;;;16.65;;
70576;SDS011;58138;43.138;24.702;2024-02-21T07:17:43;33.55;;;18.95;;
70576;SDS011;58138;43.138;24.702;2024-02-21T07:20:08;28.95;;;18.70;;
70576;SDS011;58138;43.138;24.702;2024-02-21T07:22:34;28.75;;;18.60;;
70576;SDS011;58138;43.138;24.702;2024-02-21T07:25:00;24.10;;;15.98;;
70576;SDS011;58138;43.138;24.702;2024-02-21T07:27:25;28.00;;;18.85;;
70576;SDS011;58138;43.138;24.702;2024-02-21T07:29:53;23.80;;;16.88;;
70576;SDS011;58138;43.138;24.702;2024-02-21T07:32:19;24.95;;;16.50;;
70576;SDS011;58138;43.138;24.702;2024-02-21T07:34:44;22.67;;;14.95;;
70576;SDS011;58138;43.138;24.702;2024-02-21T07:37:10;25.98;;;17.75;;
70576;SDS011;58138;43.138;24.702;2024-02-21T07:39:36;33.63;;;21.92;;
70576;SDS011;58138;43.138;24.702;2024-02-21T07:42:02;31.73;;;20.45;;
70576;SDS011;58138;43.138;24.702;2024-02-21T07:44:28;30.17;;;20.23;;
70576;SDS011;58138;43.138;24.702;2024-02-21T07:46:53;31.70;;;20.88;;
70576;SDS011;58138;43.138;24.702;2024-02-21T07:49:19;32.72;;;20.83;;
70576;SDS011;58138;43.138;24.702;2024-02-21T07:51:45;25.98;;;18.73;;
70576;SDS011;58138;43.138;24.702;2024-02-21T07:54:10;22.98;;;13.70;;
70576;SDS011;58138;43.138;24.702;2024-02-21T07:56:36;17.30;;;13.27;;
70576;SDS011;58138;43.138;24.702;2024-02-21T07:59:01;23.10;;;16.83;;
70576;SDS011;58138;43.138;24.702;2024-02-21T08:01:27;24.45;;;16.08;;
70576;SDS011;58138;43.138;24.702;2024-02-21T08:03:52;33.70;;;24.52;;
70576;SDS011;58138;43.138;24.702;2024-02-21T08:06:18;25.15;;;17.27;;
70576;SDS011;58138;43.138;24.702;2024-02-21T08:08:43;16.52;;;12.85;;
70576;SDS011;58138;43.138;24.702;2024-02-21T08:11:09;31.30;;;19.95;;
70576;SDS011;58138;43.138;24.702;2024-02-21T08:13:34;30.08;;;18.60;;
70576;SDS011;58138;43.138;24.702;2024-02-21T08:16:00;34.22;;;19.30;;
70576;SDS011;58138;43.138;24.702;2024-02-21T08:18:25;28.30;;;16.83;;
70576;SDS011;58138;43.138;24.702;2024-02-21T08:20:51;26.63;;;16.27;;
70576;SDS011;58138;43.138;24.702;2024-02-21T08:23:16;26.90;;;16.20;;
70576;SDS011;58138;43.138;24.702;2024-02-21T08:25:43;23.88;;;15.55;;
70576;SDS011;58138;43.138;24.702;2024-02-21T08:28:08;20.30;;;15.00;;
70576;SDS011;58138;43.138;24.702;2024-02-21T08:30:34;22.85;;;13.90;;
70576;SDS011;58138;43.138;24.702;2024-02-21T08:32:59;14.90;;;11.98;;
70576;SDS011;58138;43.138;24.702;2024-02-21T08:35:25;18.10;;;11.82;;
70576;SDS011;58138;43.138;24.702;2024-02-21T08:37:51;15.95;;;12.45;;
70576;SDS011;58138;43.138;24.702;2024-02-21T08:40:16;16.17;;;12.55;;
70576;SDS011;58138;43.138;24.702;2024-02-21T08:42:46;16.15;;;12.38;;
70576;SDS011;58138;43.138;24.702;2024-02-21T08:45:12;21.92;;;13.90;;
70576;SDS011;58138;43.138;24.702;2024-02-21T08:47:41;14.90;;;12.10;;
70576;SDS011;58138;43.138;24.702;2024-02-21T08:50:07;20.70;;;12.85;;
70576;SDS011;58138;43.138;24.702;2024-02-21T08:52:35;17.00;;;13.63;;
70576;SDS011;58138;43.138;24.702;2024-02-21T08:55:00;17.50;;;13.95;;
70576;SDS011;58138;43.138;24.702;2024-02-21T08:57:26;19.65;;;13.68;;
70576;SDS011;58138;43.138;24.702;2024-02-21T08:59:52;15.05;;;12.80;;
70576;SDS011;58138;43.138;24.702;2024-02-21T09:02:18;17.02;;;13.98;;
70576;SDS011;58138;43.138;24.702;2024-02-21T09:04:43;17.00;;;13.10;;
70576;SDS011;58138;43.138;24.702;2024-02-21T09:07:09;18.67;;;13.27;;
70576;SDS011;58138;43.138;24.702;2024-02-21T09:09:35;15.35;;;12.85;;
70576;SDS011;58138;43.138;24.702;2024-02-21T09:12:03;23.98;;;13.90;;
70576;SDS011;58138;43.138;24.702;2024-02-21T09:14:32;18.10;;;14.27;;
70576;SDS011;58138;43.138;24.702;2024-02-21T09:16:58;16.13;;;13.00;;
70576;SDS011;58138;43.138;24.702;2024-02-21T09:19:24;18.00;;;13.23;;
70576;SDS011;58138;43.138;24.702;2024-02-21T09:21:49;16.50;;;12.60;;
70576;SDS011;58138;43.138;24.702;2024-02-21T09:24:15;12.35;;;10.32;;
70576;SDS011;58138;43.138;24.702;2024-02-21T09:26:40;15.77;;;13.45;;
70576;SDS011;58138;43.138;24.702;2024-02-21T09:29:06;13.15;;;9.90;;
70576;SDS011;58138;43.138;24.702;2024-02-21T09:31:31;13.88;;;11.10;;
70576;SDS011;58138;43.138;24.702;2024-02-21T09:33:57;12.30;;;9.95;;
70576;SDS011;58138;43.138;24.702;2024-02-21T09:36:22;13.35;;;9.88;;
70576;SDS011;58138;43.138;24.702;2024-02-21T09:38:48;11.25;;;9.23;;
70576;SDS011;58138;43.138;24.702;2024-02-21T09:41:17;10.95;;;9.45;;
70576;SDS011;58138;43.138;24.702;2024-02-21T09:43:43;13.60;;;9.70;;
70576;SDS011;58138;43.138;24.702;2024-02-21T09:46:17;12.02;;;9.63;;
70576;SDS011;58138;43.138;24.702;2024-02-21T09:51:34;11.68;;;8.73;;
70576;SDS011;58138;43.138;24.702;2024-02-21T09:54:00;11.35;;;9.13;;
70576;SDS011;58138;43.138;24.702;2024-02-21T09:56:28;9.88;;;8.52;;
70576;SDS011;58138;43.138;24.702;2024-02-21T09:58:53;10.13;;;7.72;;
70576;SDS011;58138;43.138;24.702;2024-02-21T10:01:19;11.77;;;8.35;;
70576;SDS011;58138;43.138;24.702;2024-02-21T10:03:45;8.43;;;7.53;;
70576;SDS011;58138;43.138;24.702;2024-02-21T10:06:11;9.88;;;8.00;;
70576;SDS011;58138;43.138;24.702;2024-02-21T10:08:36;9.02;;;7.88;;
70576;SDS011;58138;43.138;24.702;2024-02-21T10:11:02;8.05;;;7.05;;
70576;SDS011;58138;43.138;24.702;2024-02-21T10:13:28;8.95;;;7.82;;
70576;SDS011;58138;43.138;24.702;2024-02-21T10:16:07;8.88;;;6.45;;
70576;SDS011;58138;43.138;24.702;2024-02-21T10:18:36;8.65;;;5.95;;
70576;SDS011;58138;43.138;24.702;2024-02-21T10:21:05;7.93;;;6.30;;
70576;SDS011;58138;43.138;24.702;2024-02-21T10:23:44;7.10;;;5.78;;
70576;SDS011;58138;43.138;24.702;2024-02-21T10:26:11;11.13;;;7.20;;
70576;SDS011;58138;43.138;24.702;2024-02-21T10:28:37;8.38;;;6.78;;
70576;SDS011;58138;43.138;24.702;2024-02-21T10:31:07;7.88;;;5.57;;
70576;SDS011;58138;43.138;24.702;2024-02-21T10:33:36;6.25;;;5.30;;
70576;SDS011;58138;43.138;24.702;2024-02-21T10:36:06;8.80;;;5.90;;
70576;SDS011;58138;43.138;24.702;2024-02-21T10:38:36;8.25;;;5.63;;
70576;SDS011;58138;43.138;24.702;2024-02-21T10:41:02;8.13;;;5.00;;
70576;SDS011;58138;43.138;24.702;2024-02-21T10:43:30;6.65;;;5.88;;
70576;SDS011;58138;43.138;24.702;2024-02-21T10:45:59;9.20;;;5.65;;
70576;SDS011;58138;43.138;24.702;2024-02-21T10:48:28;6.88;;;5.50;;
70576;SDS011;58138;43.138;24.702;2024-02-21T10:51:07;9.18;;;4.50;;
70576;SDS011;58138;43.138;24.702;2024-02-21T10:53:44;7.77;;;5.20;;
70576;SDS011;58138;43.138;24.702;2024-02-21T10:56:30;5.57;;;4.97;;
70576;SDS011;58138;43.138;24.702;2024-02-21T10:59:00;6.78;;;4.68;;
70576;SDS011;58138;43.138;24.702;2024-02-21T11:01:27;6.40;;;4.60;;
70576;SDS011;58138;43.138;24.702;2024-02-21T11:03:55;9.98;;;4.40;;
70576;SDS011;58138;43.138;24.702;2024-02-21T11:06:21;4.10;;;3.70;;
70576;SDS011;58138;43.138;24.702;2024-02-21T11:08:47;4.43;;;4.03;;
70576;SDS011;58138;43.138;24.702;2024-02-21T11:11:14;6.05;;;3.67;;
70576;SDS011;58138;43.138;24.702;2024-02-21T11:13:45;11.50;;;6.20;;
70576;SDS011;58138;43.138;24.702;2024-02-21T11:16:11;5.55;;;4.18;;
70576;SDS011;58138;43.138;24.702;2024-02-21T11:18:46;6.07;;;3.47;;
70576;SDS011;58138;43.138;24.702;2024-02-21T11:21:11;3.92;;;3.53;;
70576;SDS011;58138;43.138;24.702;2024-02-21T11:23:37;6.53;;;3.53;;
70576;SDS011;58138;43.138;24.702;2024-02-21T11:26:09;6.45;;;3.53;;
70576;SDS011;58138;43.138;24.702;2024-02-21T11:28:35;4.35;;;3.95;;
70576;SDS011;58138;43.138;24.702;2024-02-21T11:31:12;3.88;;;3.45;;
70576;SDS011;58138;43.138;24.702;2024-02-21T11:33:41;3.58;;;3.17;;
70576;SDS011;58138;43.138;24.702;2024-02-21T11:36:10;4.07;;;3.60;;
70576;SDS011;58138;43.138;24.702;2024-02-21T11:38:36;4.40;;;3.63;;
70576;SDS011;58138;43.138;24.702;2024-02-21T11:41:01;5.15;;;3.97;;
70576;SDS011;58138;43.138;24.702;2024-02-21T11:43:27;4.47;;;4.07;;
70576;SDS011;58138;43.138;24.702;2024-02-21T11:46:02;6.07;;;3.53;;
70576;SDS011;58138;43.138;24.702;2024-02-21T11:48:28;5.95;;;4.40;;
70576;SDS011;58138;43.138;24.702;2024-02-21T11:50:55;3.92;;;3.33;;
70576;SDS011;58138;43.138;24.702;2024-02-21T11:53:21;3.85;;;3.00;;
70576;SDS011;58138;43.138;24.702;2024-02-21T11:55:47;4.70;;;3.80;;
70576;SDS011;58138;43.138;24.702;2024-02-21T11:58:12;3.85;;;3.47;;
70576;SDS011;58138;43.138;24.702;2024-02-21T12:00:38;3.65;;;3.35;;
70576;SDS011;58138;43.138;24.702;2024-02-21T12:03:04;8.75;;;5.88;;
70576;SDS011;58138;43.138;24.702;2024-02-21T12:05:30;6.63;;;4.60;;
70576;SDS011;58138;43.138;24.702;2024-02-21T12:07:57;5.45;;;4.18;;
70576;SDS011;58138;43.138;24.702;2024-02-21T12:10:23;5.65;;;4.45;;
70576;SDS011;58138;43.138;24.702;2024-02-21T12:12:49;6.85;;;4.20;;
70576;SDS011;58138;43.138;24.702;2024-02-21T12:15:17;7.85;;;4.20;;
70576;SDS011;58138;43.138;24.702;2024-02-21T12:17:43;6.47;;;3.97;;
70576;SDS011;58138;43.138;24.702;2024-02-21T12:20:09;5.38;;;4.00;;
70576;SDS011;58138;43.138;24.702;2024-02-21T12:22:36;7.03;;;5.80;;
70576;SDS011;58138;43.138;24.702;2024-02-21T12:25:24;5.65;;;5.05;;
70576;SDS011;58138;43.138;24.702;2024-02-21T12:27:51;4.75;;;4.18;;
70576;SDS011;58138;43.138;24.702;2024-02-21T12:30:17;5.18;;;3.80;;
70576;SDS011;58138;43.138;24.702;2024-02-21T12:32:42;6.60;;;3.42;;
70576;SDS011;58138;43.138;24.702;2024-02-21T12:35:08;5.72;;;3.45;;
70576;SDS011;58138;43.138;24.702;2024-02-21T12:37:34;4.30;;;3.30;;
70576;SDS011;58138;43.138;24.702;2024-02-21T12:39:59;3.60;;;3.10;;
70576;SDS011;58138;43.138;24.702;2024-02-21T12:42:25;4.75;;;3.50;;
70576;SDS011;58138;43.138;24.702;2024-02-21T12:44:52;3.55;;;3.17;;
70576;SDS011;58138;43.138;24.702;2024-02-21T12:47:18;3.78;;;3.13;;
70576;SDS011;58138;43.138;24.702;2024-02-21T12:49:45;5.30;;;3.88;;
70576;SDS011;58138;43.138;24.702;2024-02-21T12:52:11;3.38;;;3.08;;
70576;SDS011;58138;43.138;24.702;2024-02-21T12:54:36;6.30;;;3.50;;
70576;SDS011;58138;43.138;24.702;2024-02-21T12:57:03;5.97;;;4.00;;
70576;SDS011;58138;43.138;24.702;2024-02-21T12:59:29;9.32;;;3.10;;
70576;SDS011;58138;43.138;24.702;2024-02-21T13:01:54;3.75;;;3.10;;
70576;SDS011;58138;43.138;24.702;2024-02-21T13:04:20;4.95;;;3.72;;
70576;SDS011;58138;43.138;24.702;2024-02-21T13:06:47;4.07;;;3.60;;
70576;SDS011;58138;43.138;24.702;2024-02-21T13:09:13;5.45;;;3.67;;
70576;SDS011;58138;43.138;24.702;2024-02-21T13:11:39;7.90;;;4.90;;
70576;SDS011;58138;43.138;24.702;2024-02-21T13:14:06;4.40;;;3.67;;
70576;SDS011;58138;43.138;24.702;2024-02-21T13:16:31;4.57;;;3.70;;
70576;SDS011;58138;43.138;24.702;2024-02-21T13:18:59;6.70;;;4.70;;
70576;SDS011;58138;43.138;24.702;2024-02-21T13:21:24;5.97;;;4.47;;
70576;SDS011;58138;43.138;24.702;2024-02-21T13:23:50;5.10;;;4.18;;
70576;SDS011;58138;43.138;24.702;2024-02-21T13:26:16;8.20;;;4.28;;
70576;SDS011;58138;43.138;24.702;2024-02-21T13:28:42;7.43;;;5.63;;
70576;SDS011;58138;43.138;24.702;2024-02-21T13:31:09;5.63;;;4.55;;
70576;SDS011;58138;43.138;24.702;2024-02-21T13:33:35;10.23;;;7.13;;
70576;SDS011;58138;43.138;24.702;2024-02-21T13:36:01;8.35;;;6.13;;
70576;SDS011;58138;43.138;24.702;2024-02-21T13:38:28;12.00;;;6.85;;
70576;SDS011;58138;43.138;24.702;2024-02-21T13:40:54;15.82;;;9.98;;
70576;SDS011;58138;43.138;24.702;2024-02-21T13:43:19;12.45;;;9.32;;
70576;SDS011;58138;43.138;24.702;2024-02-21T13:45:58;9.75;;;6.80;;
70576;SDS011;58138;43.138;24.702;2024-02-21T13:48:25;11.30;;;6.80;;
70576;SDS011;58138;43.138;24.702;2024-02-21T13:50:52;10.35;;;7.22;;
70576;SDS011;58138;43.138;24.702;2024-02-21T13:53:17;10.65;;;7.32;;
70576;SDS011;58138;43.138;24.702;2024-02-21T13:55:44;8.02;;;5.90;;
70576;SDS011;58138;43.138;24.702;2024-02-21T13:58:10;10.27;;;6.57;;
70576;SDS011;58138;43.138;24.702;2024-02-21T14:00:35;8.40;;;6.40;;
70576;SDS011;58138;43.138;24.702;2024-02-21T14:03:01;7.40;;;5.45;;
70576;SDS011;58138;43.138;24.702;2024-02-21T14:05:27;12.00;;;6.55;;
70576;SDS011;58138;43.138;24.702;2024-02-21T14:07:52;5.95;;;4.90;;
70576;SDS011;58138;43.138;24.702;2024-02-21T14:10:21;4.18;;;3.60;;
70576;SDS011;58138;43.138;24.702;2024-02-21T14:12:47;4.32;;;3.92;;
70576;SDS011;58138;43.138;24.702;2024-02-21T14:15:15;7.25;;;4.28;;